Time;durP1;ratioP1;P1;durP2;ratioP2;P2;SDS_P1;SDS_P2;PMS_P1;PMS_P2;Temp;Humidity;BMP_temperature;BMP_pressure;BME280_temperature;BME280_humidity;BME280_pressure;Samples;Min_cycle;Max_cycle;Signal;HPM_P1;HPM_P2
2021/10/10 00:00:26;;;;;;;16.80;10.07;;;10.10;99.90;;;;;;5078396;28;20024;-69
2021/10/10 00:02:52;;;;;;;12.57;9.00;;;10.10;99.90;;;;;;5096539;28;20027;-66
2021/10/10 00:05:18;;;;;;;15.77;9.75;;;10.10;99.90;;;;;;5096238;28;20485;-67
2021/10/10 00:07:44;;;;;;;18.27;10.20;;;10.10;99.90;;;;;;5096320;28;20032;-68
2021/10/10 00:10:12;;;;;;;11.60;9.07;;;10.10;99.90;;;;;;5096465;28;20042;-66
2021/10/10 00:12:39;;;;;;;13.23;9.23;;;10.10;99.90;;;;;;5078175;28;20035;-66
2021/10/10 00:15:07;;;;;;;16.70;10.35;;;10.00;99.90;;;;;;5096080;28;20028;-67
2021/10/10 00:17:33;;;;;;;15.52;9.60;;;10.10;99.90;;;;;;5096840;28;20040;-65
2021/10/10 00:19:59;;;;;;;16.45;10.65;;;10.00;99.90;;;;;;5095927;28;20038;-68
2021/10/10 00:22:25;;;;;;;18.20;10.20;;;10.00;99.90;;;;;;5077889;28;20028;-68
2021/10/10 00:24:51;;;;;;;16.92;9.68;;;10.00;99.90;;;;;;5096104;28;20020;-69
2021/10/10 00:27:17;;;;;;;13.23;9.82;;;10.10;99.90;;;;;;5096079;28;20028;-69
2021/10/10 00:29:43;;;;;;;17.83;11.10;;;10.00;99.90;;;;;;5096051;28;20028;-69
2021/10/10 00:32:09;;;;;;;18.98;11.27;;;10.00;99.90;;;;;;5095934;28;20034;-68
2021/10/10 00:34:35;;;;;;;16.17;10.63;;;10.00;99.90;;;;;;5096146;28;20111;-67
2021/10/10 00:37:01;;;;;;;15.75;10.63;;;10.10;99.90;;;;;;5095815;28;20035;-69
2021/10/10 00:39:27;;;;;;;17.73;11.52;;;10.00;99.90;;;;;;5077592;28;20517;-69
2021/10/10 00:41:52;;;;;;;17.38;11.07;;;10.00;99.90;;;;;;5095764;28;20050;-66
2021/10/10 00:44:18;;;;;;;21.27;12.10;;;10.00;99.90;;;;;;5095688;28;20028;-67
2021/10/10 00:46:44;;;;;;;17.85;11.07;;;10.00;99.90;;;;;;5095492;28;20032;-64
2021/10/10 00:49:10;;;;;;;22.23;11.45;;;10.00;99.90;;;;;;5095677;28;20032;-66
2021/10/10 00:51:38;;;;;;;16.42;10.77;;;10.00;99.90;;;;;;5077364;28;20035;-70
2021/10/10 00:54:05;;;;;;;18.88;10.48;;;10.00;99.90;;;;;;5095806;28;20024;-69
2021/10/10 00:56:32;;;;;;;17.27;11.15;;;10.00;99.90;;;;;;5077381;28;20032;-67
2021/10/10 00:59:00;;;;;;;19.42;12.55;;;10.00;99.90;;;;;;5095161;28;20039;-68
2021/10/10 01:01:32;;;;;;;17.92;10.95;;;10.00;99.90;;;;;;5095669;28;20028;-67
2021/10/10 01:03:58;;;;;;;15.70;10.60;;;10.00;99.90;;;;;;5095688;28;20512;-68
2021/10/10 01:06:25;;;;;;;19.13;12.45;;;10.00;99.90;;;;;;5095184;28;20107;-71
2021/10/10 01:08:51;;;;;;;16.38;10.98;;;10.00;99.90;;;;;;5095360;28;20028;-70
2021/10/10 01:11:19;;;;;;;21.13;10.93;;;10.00;99.90;;;;;;5095190;28;20024;-67
2021/10/10 01:13:45;;;;;;;16.60;10.98;;;10.00;99.90;;;;;;5077066;28;20031;-67
2021/10/10 01:16:12;;;;;;;19.17;12.02;;;10.00;99.90;;;;;;5094716;28;20059;-66
2021/10/10 01:18:37;;;;;;;18.73;10.80;;;10.00;99.90;;;;;;5095124;28;20509;-67
2021/10/10 01:21:03;;;;;;;20.48;12.38;;;10.00;99.90;;;;;;5076829;28;20036;-68
2021/10/10 01:23:29;;;;;;;18.73;12.32;;;10.00;99.90;;;;;;5094971;28;20028;-67
2021/10/10 01:25:55;;;;;;;25.20;12.57;;;10.00;99.90;;;;;;5094845;28;20020;-66
2021/10/10 01:28:21;;;;;;;18.98;11.43;;;9.90;99.90;;;;;;5076676;28;20434;-68
2021/10/10 01:30:47;;;;;;;20.55;12.07;;;10.00;99.90;;;;;;5094903;28;20020;-65
2021/10/10 01:33:14;;;;;;;19.33;10.88;;;9.90;99.90;;;;;;5095005;28;20432;-68
2021/10/10 01:35:40;;;;;;;20.45;11.38;;;10.00;99.90;;;;;;5076604;28;20032;-67
2021/10/10 01:38:07;;;;;;;18.77;11.43;;;9.90;99.90;;;;;;5094694;28;20032;-70
2021/10/10 01:40:34;;;;;;;16.58;10.98;;;10.00;99.90;;;;;;5094725;28;20036;-68
2021/10/10 01:43:06;;;;;;;19.95;11.38;;;9.90;99.90;;;;;;5094632;28;20077;-67
2021/10/10 01:45:32;;;;;;;15.20;10.48;;;9.90;99.90;;;;;;5094322;28;20024;-67
2021/10/10 01:47:58;;;;;;;18.00;10.55;;;9.90;99.90;;;;;;5094463;28;20107;-67
2021/10/10 01:50:24;;;;;;;17.63;9.75;;;10.00;99.90;;;;;;5076301;28;20490;-65
2021/10/10 01:52:50;;;;;;;19.00;9.98;;;9.90;99.90;;;;;;5094127;28;20032;-68
2021/10/10 01:55:17;;;;;;;13.73;8.70;;;9.90;99.90;;;;;;5094317;28;20028;-66
2021/10/10 01:57:43;;;;;;;15.73;8.75;;;9.90;99.90;;;;;;5094331;28;20486;-68
2021/10/10 02:00:10;;;;;;;13.57;8.98;;;9.90;99.90;;;;;;5094300;28;20020;-68
2021/10/10 02:02:36;;;;;;;12.23;8.23;;;9.90;99.90;;;;;;5094178;28;20043;-66
2021/10/10 02:05:02;;;;;;;16.67;8.93;;;9.90;99.90;;;;;;5094155;28;20024;-67
2021/10/10 02:07:28;;;;;;;14.15;7.65;;;9.90;99.90;;;;;;5093904;28;20429;-64
2021/10/10 02:09:54;;;;;;;12.10;8.30;;;9.90;99.90;;;;;;5075896;28;20036;-64
2021/10/10 02:12:20;;;;;;;15.48;8.55;;;9.80;99.90;;;;;;5093332;28;20020;-65
2021/10/10 02:14:46;;;;;;;18.60;8.02;;;9.90;99.90;;;;;;5094284;28;20433;-66
2021/10/10 02:17:12;;;;;;;13.77;8.15;;;9.90;99.90;;;;;;5093412;28;20056;-65
2021/10/10 02:19:38;;;;;;;10.63;7.38;;;9.80;99.90;;;;;;5093972;28;20038;-66
2021/10/10 02:22:03;;;;;;;15.15;8.13;;;9.90;99.90;;;;;;5093831;28;20373;-66
2021/10/10 02:24:29;;;;;;;11.50;6.90;;;9.90;99.90;;;;;;5093833;28;20031;-67
2021/10/10 02:26:55;;;;;;;14.10;7.35;;;9.90;99.90;;;;;;5093714;28;20028;-66
2021/10/10 02:29:22;;;;;;;12.23;7.82;;;9.90;99.90;;;;;;5093839;28;20526;-66
2021/10/10 02:31:48;;;;;;;11.27;8.02;;;9.90;99.90;;;;;;5093701;28;20016;-66
2021/10/10 02:34:15;;;;;;;12.82;7.85;;;9.90;99.90;;;;;;5093948;28;20028;-65
2021/10/10 02:36:42;;;;;;;11.85;7.88;;;9.80;99.90;;;;;;5093918;28;20074;-65
2021/10/10 02:39:09;;;;;;;17.30;7.57;;;9.80;99.90;;;;;;5093595;28;20464;-66
2021/10/10 02:41:35;;;;;;;13.05;6.93;;;9.80;99.90;;;;;;5093834;28;20455;-67
2021/10/10 02:44:02;;;;;;;10.90;6.90;;;9.80;99.90;;;;;;5093527;28;20028;-66
2021/10/10 02:46:28;;;;;;;11.73;7.20;;;9.80;99.90;;;;;;5093429;28;20062;-65
2021/10/10 02:48:54;;;;;;;13.00;6.85;;;9.80;99.90;;;;;;5093433;28;20039;-65
2021/10/10 02:51:20;;;;;;;14.07;6.68;;;9.80;99.90;;;;;;5075336;28;20028;-65
2021/10/10 02:53:46;;;;;;;14.43;6.97;;;9.80;99.90;;;;;;5093396;28;20069;-66
2021/10/10 02:56:12;;;;;;;11.55;6.22;;;9.90;99.90;;;;;;5093355;28;20114;-64
2021/10/10 02:58:38;;;;;;;10.25;6.53;;;9.80;99.90;;;;;;5093553;28;20433;-66
2021/10/10 03:01:04;;;;;;;12.80;6.63;;;9.80;99.90;;;;;;5093309;28;20480;-64
2021/10/10 03:03:30;;;;;;;14.55;6.68;;;9.80;99.90;;;;;;5093255;28;20445;-65
2021/10/10 03:05:56;;;;;;;16.27;7.05;;;9.80;99.90;;;;;;5074978;28;20068;-65
2021/10/10 03:08:22;;;;;;;16.70;7.30;;;9.80;99.90;;;;;;5093181;28;20036;-64
2021/10/10 03:10:47;;;;;;;17.52;7.85;;;9.80;99.90;;;;;;5075120;28;20058;-64
2021/10/10 03:13:13;;;;;;;13.73;6.55;;;9.80;99.90;;;;;;5093135;28;20039;-66
2021/10/10 03:15:39;;;;;;;11.65;6.43;;;9.80;99.90;;;;;;5092769;28;20051;-65
2021/10/10 03:18:06;;;;;;;12.90;7.00;;;9.80;99.90;;;;;;5093075;28;20435;-64
2021/10/10 03:20:32;;;;;;;13.05;6.20;;;9.80;99.90;;;;;;5092902;28;20059;-64
2021/10/10 03:22:58;;;;;;;15.05;6.57;;;9.80;99.90;;;;;;5095114;28;20484;-66
2021/10/10 03:25:24;;;;;;;13.00;6.78;;;9.80;99.90;;;;;;5097253;28;20074;-68
2021/10/10 03:27:50;;;;;;;12.48;6.68;;;9.80;99.90;;;;;;5096836;28;20451;-64
2021/10/10 03:30:16;;;;;;;9.82;6.45;;;9.80;99.90;;;;;;5097485;28;20071;-65
2021/10/10 03:32:42;;;;;;;10.65;6.38;;;9.80;99.90;;;;;;5097189;28;20024;-63
2021/10/10 03:35:08;;;;;;;10.35;6.82;;;;;;;;;;5097107;28;20041;-64
2021/10/10 03:37:35;;;;;;;17.13;7.60;;;9.80;99.90;;;;;;5097088;28;20060;-66
2021/10/10 03:40:06;;;;;;;13.98;6.72;;;9.80;99.90;;;;;;5097083;28;20024;-66
2021/10/10 03:42:32;;;;;;;9.48;6.43;;;9.80;99.90;;;;;;5079025;28;20421;-66
2021/10/10 03:45:00;;;;;;;18.67;7.57;;;9.80;99.90;;;;;;5097169;28;20107;-67
2021/10/10 03:47:26;;;;;;;10.75;6.43;;;9.80;99.90;;;;;;5096888;28;20497;-65
2021/10/10 03:49:52;;;;;;;11.98;6.93;;;9.80;99.90;;;;;;5078696;28;20032;-65
2021/10/10 03:52:18;;;;;;;15.30;7.90;;;9.80;99.90;;;;;;5096746;28;20057;-66
2021/10/10 03:57:24;;;;;;;12.85;7.47;;;9.70;99.90;;;;;;5096743;28;20089;-66
2021/10/10 04:00:03;;;;;;;12.95;7.80;;;9.70;99.90;;;;;;5096726;28;20028;-66
2021/10/10 04:02:29;;;;;;;16.23;7.30;;;9.70;99.90;;;;;;5096615;28;20024;-65
2021/10/10 04:04:55;;;;;;;18.30;7.75;;;9.80;99.90;;;;;;5096516;28;20086;-66
2021/10/10 04:07:22;;;;;;;15.98;7.38;;;9.80;99.90;;;;;;5096417;28;20024;-66
2021/10/10 04:09:48;;;;;;;15.18;8.32;;;9.70;99.90;;;;;;5078223;28;20052;-66
2021/10/10 04:12:14;;;;;;;19.10;8.35;;;9.70;99.90;;;;;;5096381;28;20028;-68
2021/10/10 04:14:40;;;;;;;18.20;8.07;;;9.80;99.90;;;;;;5078211;28;20030;-66
2021/10/10 04:17:09;;;;;;;17.58;8.25;;;9.70;99.90;;;;;;5074247;28;20492;-67
2021/10/10 04:19:36;;;;;;;12.75;8.07;;;9.80;99.90;;;;;;5075977;28;20028;-69
2021/10/10 04:22:02;;;;;;;16.60;8.18;;;9.70;99.90;;;;;;5074679;28;20043;-66
2021/10/10 04:24:27;;;;;;;16.00;8.52;;;9.70;99.90;;;;;;5075904;28;20376;-69
2021/10/10 04:26:53;;;;;;;16.85;8.32;;;9.70;99.90;;;;;;5075778;28;20032;-67
2021/10/10 04:29:20;;;;;;;17.15;9.20;;;9.70;99.90;;;;;;5075866;28;20060;-67
2021/10/10 04:31:46;;;;;;;17.67;9.05;;;9.70;99.90;;;;;;5074514;28;20024;-65
2021/10/10 04:34:12;;;;;;;18.60;8.77;;;9.70;99.90;;;;;;5074976;28;20021;-65
2021/10/10 04:36:38;;;;;;;19.13;9.68;;;9.70;99.90;;;;;;5075695;28;20174;-65
2021/10/10 04:39:05;;;;;;;18.00;9.60;;;;;;;;;;5074601;28;20474;-65
2021/10/10 04:41:31;;;;;;;27.15;10.85;;;;;;;;;;5075385;28;20028;-66
2021/10/10 04:43:57;;;;;;;14.68;9.27;;;;;;;;;;5075237;28;20111;-64
2021/10/10 04:46:23;;;;;;;16.80;9.73;;;;;;;;;;5075150;28;20040;-65
2021/10/10 04:48:50;;;;;;;18.15;10.95;;;;;;;;;;5075160;28;20402;-65
2021/10/10 04:51:16;;;;;;;17.05;11.00;;;;;;;;;;5075491;28;20021;-64
2021/10/10 04:53:43;;;;;;;19.75;11.57;;;;;;;;;;5075370;28;20112;-64
2021/10/10 04:56:11;;;;;;;25.27;11.57;;;;;;;;;;5075578;28;20132;-64
2021/10/10 04:58:37;;;;;;;20.13;12.15;;;;;;;;;;5075465;28;20024;-66
2021/10/10 05:01:03;;;;;;;18.55;11.98;;;;;;;;;;5075527;28;20099;-66
2021/10/10 05:03:30;;;;;;;18.58;12.35;;;;;;;;;;5075425;28;20115;-65
2021/10/10 05:05:56;;;;;;;19.00;12.77;;;;;;;;;;5075007;28;20025;-65
2021/10/10 05:08:22;;;;;;;25.35;12.02;;;;;;;;;;5075102;28;20032;-66
2021/10/10 05:10:48;;;;;;;21.10;11.93;;;;;;;;;;5075008;28;20020;-65
2021/10/10 05:13:25;;;;;;;23.60;12.45;;;;;;;;;;5074946;28;20104;-66
2021/10/10 05:15:52;;;;;;;28.85;14.60;;;;;;;;;;5081970;28;20495;-66
2021/10/10 05:18:18;;;;;;;26.33;13.82;;;;;;;;;;5095116;28;20054;-66
2021/10/10 05:20:44;;;;;;;22.92;14.20;;;;;;;;;;5095400;28;20106;-67
2021/10/10 05:23:14;;;;;;;25.00;14.48;;;;;;;;;;5076837;28;20058;-67
2021/10/10 05:25:41;;;;;;;29.95;15.30;;;;;;;;;;5095021;28;20032;-66
2021/10/10 05:28:07;;;;;;;33.45;16.08;;;;;;;;;;5094846;28;20028;-69
2021/10/10 05:30:34;;;;;;;24.05;14.95;;;;;;;;;;5076732;28;20480;-69
2021/10/10 05:33:00;;;;;;;44.35;17.05;;;;;;;;;;5076614;28;20026;-68
2021/10/10 05:35:27;;;;;;;25.85;14.65;;;;;;;;;;5076634;28;20119;-68
2021/10/10 05:37:53;;;;;;;32.20;14.82;;;;;;;;;;5094713;28;20103;-67
2021/10/10 05:40:19;;;;;;;29.02;15.52;;;;;;;;;;5094679;28;20056;-69
2021/10/10 05:42:45;;;;;;;29.30;14.98;;;;;;;;;;5094652;28;20105;-66
2021/10/10 05:45:11;;;;;;;23.90;14.43;;;;;;;;;;5076115;28;20060;-67
2021/10/10 05:47:38;;;;;;;24.27;13.82;;;;;;;;;;5075441;28;20035;-66
2021/10/10 05:50:05;;;;;;;24.85;14.95;;;;;;;;;;5094497;28;20028;-65
2021/10/10 05:52:31;;;;;;;25.80;15.32;;;;;;;;;;5094509;28;20020;-66
2021/10/10 05:54:58;;;;;;;22.60;14.07;;;;;;;;;;5094375;28;20506;-66
2021/10/10 05:57:32;;;;;;;26.70;14.93;;;;;;;;;;5087293;28;20122;-67
2021/10/10 06:00:02;;;;;;;23.98;14.57;;;;;;;;;;5076910;28;20498;-69
2021/10/10 06:02:30;;;;;;;24.50;15.23;;;;;;;;;;5094075;28;20437;-67
2021/10/10 06:04:56;;;;;;;33.65;16.63;;;;;;;;;;5094006;28;20055;-66
2021/10/10 06:07:23;;;;;;;31.27;15.93;;;;;;;;;;5094074;28;20032;-69
2021/10/10 06:09:49;;;;;;;26.75;15.88;;;;;;;;;;5093791;28;20035;-67
2021/10/10 06:12:18;;;;;;;25.88;15.25;;;;;;;;;;5094001;28;20028;-66
2021/10/10 06:14:47;;;;;;;27.70;15.05;;;;;;;;;;5093735;28;20024;-67
2021/10/10 06:17:15;;;;;;;26.75;14.35;;;;;;;;;;5093471;28;20523;-66
2021/10/10 06:19:41;;;;;;;22.92;14.27;;;;;;;;;;5072349;28;20530;-66
2021/10/10 06:22:07;;;;;;;24.55;14.70;;;;;;;;;;5075132;28;20024;-68
2021/10/10 06:24:34;;;;;;;29.77;14.25;;;;;;;;;;5075440;28;20476;-69
2021/10/10 06:27:00;;;;;;;25.75;14.82;;;;;;;;;;5075247;28;20097;-67
2021/10/10 06:29:26;;;;;;;29.23;13.50;;;;;;;;;;5093525;28;20051;-67
2021/10/10 06:31:52;;;;;;;31.10;14.63;;;;;;;;;;5093287;28;20109;-67
2021/10/10 06:34:18;;;;;;;24.00;14.85;;;;;;;;;;5093279;28;20461;-67
2021/10/10 06:36:44;;;;;;;31.15;14.30;;;;;;;;;;5074633;28;20458;-67
2021/10/10 06:39:11;;;;;;;26.42;13.68;;;;;;;;;;5100521;28;20035;-68
2021/10/10 06:41:37;;;;;;;23.13;14.02;;;;;;;;;;5095645;28;20062;-68
2021/10/10 06:44:03;;;;;;;27.70;13.88;;;;;;;;;;5095115;28;20076;-67
2021/10/10 06:46:29;;;;;;;28.48;13.10;;;;;;;;;;5113359;28;20024;-67
2021/10/10 06:48:56;;;;;;;24.55;12.45;;;;;;;;;;5113358;28;20035;-68
2021/10/10 06:51:22;;;;;;;27.83;13.23;;;;;;;;;;5095330;28;20455;-68
2021/10/10 06:53:48;;;;;;;25.52;13.82;;;9.90;99.90;;;;;;5113120;28;20031;-70
2021/10/10 06:56:13;;;;;;;23.80;13.07;;;9.90;99.90;;;;;;5094709;28;20023;-68
2021/10/10 06:58:39;;;;;;;28.23;14.00;;;9.90;99.90;;;;;;5094505;28;20024;-68
2021/10/10 07:01:05;;;;;;;24.75;12.77;;;10.00;99.90;;;;;;5113218;28;20375;-69
2021/10/10 07:03:31;;;;;;;24.10;12.07;;;10.00;99.90;;;;;;5113178;28;20031;-68
2021/10/10 07:05:57;;;;;;;30.85;13.35;;;10.00;99.90;;;;;;5113251;28;20027;-69
2021/10/10 07:08:22;;;;;;;22.30;13.20;;;10.00;99.90;;;;;;5113382;28;20028;-68
2021/10/10 07:10:48;;;;;;;51.20;12.10;;;10.00;99.90;;;;;;5112987;28;20030;-69
2021/10/10 07:13:14;;;;;;;30.45;11.90;;;10.00;99.90;;;;;;5113406;28;20031;-68
2021/10/10 07:15:40;;;;;;;28.38;14.02;;;10.00;99.90;;;;;;5094462;28;20404;-69
2021/10/10 07:18:07;;;;;;;23.95;11.88;;;10.10;99.90;;;;;;5112877;28;20051;-68
2021/10/10 07:25:53;;;;;;;25.38;11.88;;;10.10;99.90;;;;;;5113351;28;20088;-68
2021/10/10 07:28:19;;;;;;;23.38;13.50;;;10.00;99.90;;;;;;5113193;28;20085;-68
2021/10/10 07:30:48;;;;;;;24.95;12.45;;;10.10;99.90;;;;;;5113114;28;20746;-66
2021/10/10 07:33:16;;;;;;;32.35;15.40;;;10.10;99.90;;;;;;5113203;28;20028;-66
2021/10/10 07:35:42;;;;;;;23.50;12.98;;;10.00;99.90;;;;;;5113194;28;20423;-65
2021/10/10 07:38:08;;;;;;;25.05;11.48;;;10.10;99.90;;;;;;5113471;28;20107;-66
2021/10/10 07:40:34;;;;;;;24.92;11.80;;;10.10;99.90;;;;;;5113188;28;20425;-67
2021/10/10 07:43:00;;;;;;;38.42;13.35;;;10.10;99.90;;;;;;5113196;28;20051;-65
2021/10/10 07:45:26;;;;;;;28.88;11.77;;;10.10;99.90;;;;;;5112862;28;20066;-66
2021/10/10 07:47:55;;;;;;;23.00;12.90;;;10.10;99.90;;;;;;5113020;28;20027;-65
2021/10/10 07:50:23;;;;;;;32.80;14.82;;;10.20;99.90;;;;;;5113228;28;20474;-67
2021/10/10 07:52:50;;;;;;;32.00;13.85;;;10.20;99.90;;;;;;5113164;28;20119;-66
2021/10/10 07:55:16;;;;;;;25.58;13.30;;;10.20;99.90;;;;;;5113063;28;20028;-66
2021/10/10 07:57:42;;;;;;;30.08;14.55;;;10.20;99.90;;;;;;5094640;28;20528;-65
2021/10/10 08:00:10;;;;;;;31.58;12.63;;;10.20;99.90;;;;;;5112970;28;20028;-67
2021/10/10 08:02:56;;;;;;;25.52;13.00;;;10.10;99.90;;;;;;5113012;28;20029;-67
2021/10/10 08:05:24;;;;;;;27.52;12.60;;;10.20;99.90;;;;;;5112943;28;20023;-66
2021/10/10 08:07:51;;;;;;;26.83;11.52;;;10.30;99.90;;;;;;5094452;28;20067;-65
2021/10/10 08:10:17;;;;;;;26.38;12.60;;;10.30;99.90;;;;;;5096628;28;20038;-66
2021/10/10 08:12:43;;;;;;;25.00;13.23;;;10.30;99.90;;;;;;5098483;28;20493;-67
2021/10/10 08:15:10;;;;;;;34.58;14.43;;;10.40;99.90;;;;;;5116419;28;20501;-66
2021/10/10 08:17:36;;;;;;;27.10;12.65;;;10.40;99.90;;;;;;5098373;28;20111;-69
2021/10/10 08:20:03;;;;;;;33.15;14.27;;;10.40;99.90;;;;;;5116413;28;20023;-67
2021/10/10 08:22:32;;;;;;;26.58;12.27;;;10.40;99.90;;;;;;5116894;28;20084;-69
2021/10/10 08:24:58;;;;;;;25.92;12.55;;;10.40;99.90;;;;;;5116493;28;20023;-65
2021/10/10 08:27:24;;;;;;;31.38;12.45;;;10.80;99.90;;;;;;5097962;28;20109;-67
2021/10/10 08:29:49;;;;;;;28.52;13.60;;;10.70;99.90;;;;;;5098271;28;20034;-67
2021/10/10 08:32:15;;;;;;;24.80;12.98;;;10.70;99.90;;;;;;5116343;28;20034;-66
2021/10/10 08:34:41;;;;;;;27.75;13.52;;;10.70;99.90;;;;;;5097923;28;20031;-68
2021/10/10 08:37:07;;;;;;;31.92;12.93;;;10.60;99.90;;;;;;5097859;28;20031;-67
2021/10/10 08:39:35;;;;;;;21.73;12.25;;;10.70;99.90;;;;;;5116142;28;20103;-66
2021/10/10 08:42:03;;;;;;;23.92;11.73;;;10.70;99.90;;;;;;5115845;28;20028;-66
2021/10/10 08:44:33;;;;;;;27.73;12.07;;;10.70;99.90;;;;;;5115582;28;20564;-65
2021/10/10 08:47:14;;;;;;;28.15;11.45;;;10.70;99.90;;;;;;5116028;28;20036;-66
2021/10/10 08:49:40;;;;;;;23.73;11.63;;;10.80;99.90;;;;;;5115974;28;20074;-65
2021/10/10 08:52:14;;;;;;;28.58;12.35;;;10.80;99.90;;;;;;5115898;28;20031;-65
2021/10/10 08:54:41;;;;;;;28.10;12.75;;;10.80;99.90;;;;;;5115477;28;20068;-68
2021/10/10 08:57:09;;;;;;;34.08;13.25;;;10.80;99.90;;;;;;5115806;28;20027;-66
2021/10/10 08:59:40;;;;;;;29.05;11.23;;;10.70;99.90;;;;;;5097488;28;20115;-69
2021/10/10 09:02:14;;;;;;;22.20;10.10;;;10.80;99.90;;;;;;5115843;28;20092;-69
2021/10/10 09:04:40;;;;;;;29.80;11.00;;;10.80;99.90;;;;;;5097460;28;20028;-65
2021/10/10 09:07:07;;;;;;;35.08;12.25;;;10.90;99.90;;;;;;5115432;28;20027;-69
2021/10/10 09:09:39;;;;;;;26.55;11.63;;;10.80;99.90;;;;;;5115628;28;20024;-68
2021/10/10 09:12:12;;;;;;;28.48;12.93;;;10.80;99.90;;;;;;5115660;28;20031;-67
2021/10/10 09:14:45;;;;;;;26.92;12.55;;;10.80;99.90;;;;;;5097223;28;20032;-66
2021/10/10 09:17:15;;;;;;;33.85;12.38;;;10.80;99.90;;;;;;5115714;28;20406;-67
2021/10/10 09:19:51;;;;;;;26.90;11.00;;;10.90;99.90;;;;;;5115409;28;20034;-67
2021/10/10 09:22:18;;;;;;;33.17;13.02;;;10.90;99.90;;;;;;5115723;28;20069;-70
2021/10/10 09:24:45;;;;;;;25.65;11.45;;;10.90;99.90;;;;;;5096960;28;20027;-67
2021/10/10 09:27:13;;;;;;;23.88;11.70;;;10.90;99.90;;;;;;5115135;28;20035;-69
2021/10/10 09:29:42;;;;;;;23.27;11.60;;;11.00;99.90;;;;;;5115161;28;20020;-67
2021/10/10 09:32:13;;;;;;;31.63;11.23;;;11.00;99.90;;;;;;5115089;28;20031;-67
2021/10/10 09:34:41;;;;;;;26.27;10.88;;;11.00;99.90;;;;;;5115242;28;20081;-66
2021/10/10 09:37:11;;;;;;;25.58;12.15;;;11.10;99.90;;;;;;5114984;28;20039;-68
2021/10/10 09:39:42;;;;;;;30.92;13.40;;;11.20;99.90;;;;;;5114961;28;20019;-67
2021/10/10 09:42:07;;;;;;;25.20;12.00;;;11.10;99.90;;;;;;5096530;28;20032;-67
2021/10/10 09:44:47;;;;;;;30.73;12.98;;;11.20;99.90;;;;;;5096639;28;20189;-66
2021/10/10 09:47:16;;;;;;;26.58;11.13;;;11.10;99.90;;;;;;5114829;28;20031;-66
2021/10/10 09:49:42;;;;;;;26.88;13.57;;;11.20;99.90;;;;;;5114001;28;20024;-67
2021/10/10 09:52:08;;;;;;;24.48;11.35;;;11.20;99.90;;;;;;5096280;28;20031;-69
2021/10/10 09:54:58;;;;;;;30.90;14.48;;;11.20;99.90;;;;;;5094699;28;20486;-65
2021/10/10 09:57:32;;;;;;;28.75;12.27;;;11.30;99.90;;;;;;5093903;28;20035;-69
2021/10/10 09:59:57;;;;;;;24.05;10.45;;;11.30;99.90;;;;;;5076052;28;20031;-68
2021/10/10 10:02:42;;;;;;;28.92;10.52;;;11.30;99.90;;;;;;5094030;28;20107;-66
2021/10/10 10:05:21;;;;;;;26.83;11.90;;;11.40;99.90;;;;;;5075702;28;20048;-67
2021/10/10 10:07:48;;;;;;;24.13;11.20;;;11.30;99.90;;;;;;5093696;28;20081;-68
2021/10/10 10:10:14;;;;;;;30.83;12.93;;;11.30;99.90;;;;;;5093931;28;20379;-70
2021/10/10 10:12:40;;;;;;;24.40;10.80;;;11.30;99.90;;;;;;5075473;28;20024;-69
2021/10/10 10:15:06;;;;;;;21.45;10.35;;;11.30;99.90;;;;;;5075434;28;20036;-69
2021/10/10 10:17:33;;;;;;;22.48;9.88;;;11.30;99.90;;;;;;5092848;28;20031;-70
2021/10/10 10:20:02;;;;;;;24.95;11.77;;;11.10;99.90;;;;;;5093669;28;20024;-70
2021/10/10 10:22:31;;;;;;;21.60;10.82;;;11.20;99.90;;;;;;5075401;28;20109;-69
2021/10/10 10:24:58;;;;;;;20.08;10.18;;;11.20;99.90;;;;;;5092400;28;20154;-72
2021/10/10 10:27:24;;;;;;;20.40;9.05;;;11.30;99.90;;;;;;5075053;28;20604;-71
2021/10/10 10:29:53;;;;;;;21.15;8.60;;;11.30;99.90;;;;;;5093264;28;20024;-69
2021/10/10 10:32:19;;;;;;;17.75;9.95;;;11.40;99.90;;;;;;5092707;28;20030;-66
2021/10/10 10:35:11;;;;;;;22.65;9.27;;;11.40;99.90;;;;;;5093630;28;20020;-66
2021/10/10 10:37:42;;;;;;;20.20;8.90;;;11.40;99.90;;;;;;5093527;28;20031;-67
2021/10/10 10:40:14;;;;;;;20.98;7.82;;;11.40;99.90;;;;;;5093498;28;20376;-66
2021/10/10 10:42:44;;;;;;;20.30;8.35;;;11.40;99.90;;;;;;5075204;28;20136;-67
2021/10/10 10:45:22;;;;;;;17.48;10.30;;;11.40;99.90;;;;;;5093493;28;20353;-67
2021/10/10 10:47:49;;;;;;;26.90;10.00;;;11.50;99.90;;;;;;5093353;28;20527;-67
2021/10/10 10:50:18;;;;;;;23.58;10.02;;;11.40;99.90;;;;;;5093319;28;20024;-71
2021/10/10 10:52:54;;;;;;;17.80;9.18;;;11.50;99.90;;;;;;5093338;28;20035;-68
2021/10/10 10:55:23;;;;;;;22.63;9.13;;;11.50;99.90;;;;;;5100017;28;20051;-69
2021/10/10 10:57:51;;;;;;;24.20;9.98;;;11.40;99.90;;;;;;5089019;28;20446;-66
2021/10/10 11:00:29;;;;;;;21.55;8.68;;;11.50;99.90;;;;;;5113421;28;20031;-68
2021/10/10 11:03:01;;;;;;;20.45;9.45;;;11.50;99.90;;;;;;5095154;28;20031;-66
2021/10/10 11:05:40;;;;;;;27.48;11.60;;;11.50;99.90;;;;;;5095237;28;20402;-68
2021/10/10 11:08:14;;;;;;;35.30;11.80;;;11.50;99.90;;;;;;5113406;28;20054;-68
2021/10/10 11:10:40;;;;;;;25.55;10.10;;;11.50;99.90;;;;;;5113547;28;20039;-67
2021/10/10 11:13:05;;;;;;;20.30;9.70;;;11.60;99.90;;;;;;5113457;28;20028;-70
2021/10/10 11:15:53;;;;;;;30.73;11.65;;;11.50;99.90;;;;;;5113195;28;20437;-67
2021/10/10 11:18:21;;;;;;;27.73;11.65;;;11.60;99.90;;;;;;5113292;28;20228;-70
2021/10/10 11:20:52;;;;;;;33.60;12.20;;;11.60;99.90;;;;;;5095043;28;20023;-67
2021/10/10 11:23:18;;;;;;;33.92;11.73;;;11.60;99.90;;;;;;5113429;28;20349;-68
2021/10/10 11:25:47;;;;;;;29.23;11.82;;;11.60;99.90;;;;;;5095030;28;20031;-66
2021/10/10 11:28:13;;;;;;;19.70;9.50;;;11.60;99.90;;;;;;5113116;28;20056;-65
2021/10/10 11:30:39;;;;;;;35.80;13.13;;;11.60;99.90;;;;;;5108901;28;20464;-68
2021/10/10 11:33:04;;;;;;;37.92;14.07;;;11.60;99.90;;;;;;5074581;28;20032;-68
2021/10/10 11:35:30;;;;;;;28.65;12.88;;;11.60;99.90;;;;;;5092908;28;20056;-66
2021/10/10 11:38:10;;;;;;;23.65;10.57;;;11.70;99.90;;;;;;5092828;28;20101;-66
2021/10/10 11:40:39;;;;;;;27.40;10.85;;;11.70;99.90;;;;;;5092601;28;20012;-65
2021/10/10 11:43:06;;;;;;;27.00;10.82;;;11.70;99.90;;;;;;5074900;28;20032;-67
2021/10/10 11:45:32;;;;;;;26.55;12.75;;;11.70;99.90;;;;;;5096904;28;20051;-68
2021/10/10 11:47:58;;;;;;;22.27;8.88;;;11.70;99.90;;;;;;5096728;28;20071;-67
2021/10/10 11:50:24;;;;;;;25.23;11.70;;;11.80;99.90;;;;;;5096638;28;20464;-67
2021/10/10 11:52:59;;;;;;;20.48;9.38;;;11.80;99.90;;;;;;5096656;28;20069;-67
2021/10/10 11:58:01;;;;;;;21.10;9.07;;;11.80;99.90;;;;;;5096558;28;20480;-67
2021/10/10 12:00:28;;;;;;;22.52;10.02;;;11.90;99.90;;;;;;5078097;28;20020;-67
2021/10/10 12:03:05;;;;;;;35.25;12.13;;;11.90;99.90;;;;;;5096562;28;20032;-68
2021/10/10 12:05:41;;;;;;;31.38;14.57;;;12.00;99.90;;;;;;5078040;28;20093;-68
2021/10/10 12:08:25;;;;;;;21.42;9.32;;;12.00;99.90;;;;;;5096504;28;20035;-66
2021/10/10 12:10:54;;;;;;;29.23;12.32;;;12.00;99.90;;;;;;5078236;28;20060;-69
2021/10/10 12:13:22;;;;;;;19.77;8.73;;;12.10;99.90;;;;;;5096384;28;20028;-69
2021/10/10 12:16:02;;;;;;;30.35;13.27;;;12.10;99.90;;;;;;5096073;28;20374;-67
2021/10/10 12:18:33;;;;;;;23.63;10.20;;;12.10;99.90;;;;;;5095499;28;20028;-67
2021/10/10 12:21:20;;;;;;;21.35;10.10;;;12.10;99.90;;;;;;5077291;28;20031;-67
2021/10/10 12:24:00;;;;;;;16.13;8.05;;;12.10;99.90;;;;;;5096181;28;20020;-68
2021/10/10 12:26:42;;;;;;;25.77;12.25;;;12.10;99.90;;;;;;5096200;28;20112;-69
2021/10/10 12:29:25;;;;;;;24.05;10.32;;;12.10;99.90;;;;;;5096174;28;20020;-68
2021/10/10 12:31:52;;;;;;;14.20;8.65;;;12.10;99.90;;;;;;5095965;28;20119;-68
2021/10/10 12:34:17;;;;;;;15.43;7.32;;;12.10;99.90;;;;;;5095627;28;20024;-68
2021/10/10 12:36:46;;;;;;;24.95;9.70;;;12.00;99.90;;;;;;5095534;28;20031;-68
2021/10/10 12:39:13;;;;;;;16.27;7.95;;;12.00;99.90;;;;;;5095799;28;20074;-68
2021/10/10 12:41:39;;;;;;;16.25;9.18;;;12.00;99.90;;;;;;5077556;28;20039;-66
2021/10/10 12:44:08;;;;;;;17.55;8.38;;;12.00;99.90;;;;;;5095833;28;20519;-69
2021/10/10 12:46:55;;;;;;;18.77;9.88;;;12.00;99.90;;;;;;5095686;28;20035;-67
2021/10/10 12:49:28;;;;;;;16.13;8.48;;;12.00;99.90;;;;;;5095731;28;20034;-68
2021/10/10 12:51:55;;;;;;;22.27;9.05;;;12.00;99.90;;;;;;5095652;28;20111;-67
2021/10/10 12:54:23;;;;;;;16.20;8.82;;;12.00;99.90;;;;;;5095619;28;20016;-69
2021/10/10 12:57:06;;;;;;;22.17;10.25;;;11.90;99.90;;;;;;5094945;28;20028;-68
2021/10/10 12:59:33;;;;;;;18.77;10.00;;;12.00;99.90;;;;;;5095530;28;20028;-68
2021/10/10 13:02:00;;;;;;;21.23;10.98;;;11.90;99.90;;;;;;5095458;28;20020;-68
2021/10/10 13:04:27;;;;;;;22.10;9.15;;;11.90;99.90;;;;;;5095462;28;20024;-67